sensor_id;sensor_type;location;lat;lon;timestamp;temperature;humidity
24384;DHT22;12504;52.870;8.798;2022-10-22T00:01:59;11.80;99.90
24384;DHT22;12504;52.870;8.798;2022-10-22T00:04:25;11.80;99.90
24384;DHT22;12504;52.870;8.798;2022-10-22T00:06:50;11.80;99.90
24384;DHT22;12504;52.870;8.798;2022-10-22T00:09:16;11.80;99.90
24384;DHT22;12504;52.870;8.798;2022-10-22T00:11:41;11.70;99.90
24384;DHT22;12504;52.870;8.798;2022-10-22T00:14:07;11.70;99.90
24384;DHT22;12504;52.870;8.798;2022-10-22T00:16:33;11.70;99.90
24384;DHT22;12504;52.870;8.798;2022-10-22T00:18:59;11.70;99.90
24384;DHT22;12504;52.870;8.798;2022-10-22T00:21:25;11.70;99.90
24384;DHT22;12504;52.870;8.798;2022-10-22T00:23:53;11.70;99.90
24384;DHT22;12504;52.870;8.798;2022-10-22T00:26:19;11.70;99.90
24384;DHT22;12504;52.870;8.798;2022-10-22T00:28:45;11.60;99.90
24384;DHT22;12504;52.870;8.798;2022-10-22T00:31:10;11.70;99.90
24384;DHT22;12504;52.870;8.798;2022-10-22T00:33:36;11.80;99.90
24384;DHT22;12504;52.870;8.798;2022-10-22T00:36:02;11.70;99.90
24384;DHT22;12504;52.870;8.798;2022-10-22T00:38:27;11.80;99.90
24384;DHT22;12504;52.870;8.798;2022-10-22T00:40:53;11.80;99.90
24384;DHT22;12504;52.870;8.798;2022-10-22T00:43:18;11.70;99.90
24384;DHT22;12504;52.870;8.798;2022-10-22T00:45:45;11.60;99.90
24384;DHT22;12504;52.870;8.798;2022-10-22T00:48:12;11.70;99.90
24384;DHT22;12504;52.870;8.798;2022-10-22T00:50:40;11.60;99.90
24384;DHT22;12504;52.870;8.798;2022-10-22T00:53:12;11.70;99.90
24384;DHT22;12504;52.870;8.798;2022-10-22T00:55:39;11.70;99.90
24384;DHT22;12504;52.870;8.798;2022-10-22T00:58:05;11.70;99.90
24384;DHT22;12504;52.870;8.798;2022-10-22T01:00:31;11.80;99.90
24384;DHT22;12504;52.870;8.798;2022-10-22T01:02:56;11.90;99.90
24384;DHT22;12504;52.870;8.798;2022-10-22T01:05:22;12.10;99.90
24384;DHT22;12504;52.870;8.798;2022-10-22T01:07:51;12.20;99.90
24384;DHT22;12504;52.870;8.798;2022-10-22T01:15:45;12.20;99.90
24384;DHT22;12504;52.870;8.798;2022-10-22T01:18:15;12.20;99.90
24384;DHT22;12504;52.870;8.798;2022-10-22T01:29:17;12.20;99.90
24384;DHT22;12504;52.870;8.798;2022-10-22T01:31:45;12.20;99.90
24384;DHT22;12504;52.870;8.798;2022-10-22T01:34:12;12.20;99.90
24384;DHT22;12504;52.870;8.798;2022-10-22T01:36:39;12.10;99.90
24384;DHT22;12504;52.870;8.798;2022-10-22T01:39:05;12.00;99.90
24384;DHT22;12504;52.870;8.798;2022-10-22T01:41:32;12.10;99.90
24384;DHT22;12504;52.870;8.798;2022-10-22T01:43:58;12.10;99.90
24384;DHT22;12504;52.870;8.798;2022-10-22T01:46:24;12.10;99.90
24384;DHT22;12504;52.870;8.798;2022-10-22T01:49:05;12.10;99.90
24384;DHT22;12504;52.870;8.798;2022-10-22T01:51:40;12.20;99.90
24384;DHT22;12504;52.870;8.798;2022-10-22T02:02:05;12.10;99.90
24384;DHT22;12504;52.870;8.798;2022-10-22T02:04:39;12.00;99.90
24384;DHT22;12504;52.870;8.798;2022-10-22T02:07:06;12.10;99.90
24384;DHT22;12504;52.870;8.798;2022-10-22T02:09:33;12.00;99.90
24384;DHT22;12504;52.870;8.798;2022-10-22T02:12:00;12.00;99.90
24384;DHT22;12504;52.870;8.798;2022-10-22T02:14:27;12.10;99.90
24384;DHT22;12504;52.870;8.798;2022-10-22T02:16:53;12.20;99.90
24384;DHT22;12504;52.870;8.798;2022-10-22T02:21:49;12.10;99.90
24384;DHT22;12504;52.870;8.798;2022-10-22T02:24:15;12.10;99.90
24384;DHT22;12504;52.870;8.798;2022-10-22T02:26:43;12.10;99.90
24384;DHT22;12504;52.870;8.798;2022-10-22T02:29:12;12.00;99.90
24384;DHT22;12504;52.870;8.798;2022-10-22T02:31:40;12.10;99.90
24384;DHT22;12504;52.870;8.798;2022-10-22T02:34:08;12.10;99.90
24384;DHT22;12504;52.870;8.798;2022-10-22T02:36:36;12.00;99.90
24384;DHT22;12504;52.870;8.798;2022-10-22T02:39:02;12.00;99.90
24384;DHT22;12504;52.870;8.798;2022-10-22T02:41:28;12.00;99.90
24384;DHT22;12504;52.870;8.798;2022-10-22T02:43:54;12.00;99.90
24384;DHT22;12504;52.870;8.798;2022-10-22T02:46:20;12.10;99.90
24384;DHT22;12504;52.870;8.798;2022-10-22T02:48:46;12.10;99.90
24384;DHT22;12504;52.870;8.798;2022-10-22T02:51:11;12.20;99.90
24384;DHT22;12504;52.870;8.798;2022-10-22T02:53:37;12.00;99.90
24384;DHT22;12504;52.870;8.798;2022-10-22T02:56:02;12.00;99.90
24384;DHT22;12504;52.870;8.798;2022-10-22T02:58:28;12.10;99.90
24384;DHT22;12504;52.870;8.798;2022-10-22T03:00:54;12.20;99.90
24384;DHT22;12504;52.870;8.798;2022-10-22T03:03:19;12.10;99.90
24384;DHT22;12504;52.870;8.798;2022-10-22T03:05:45;12.20;99.90
24384;DHT22;12504;52.870;8.798;2022-10-22T03:08:11;12.10;99.90
24384;DHT22;12504;52.870;8.798;2022-10-22T03:10:36;12.10;99.90
24384;DHT22;12504;52.870;8.798;2022-10-22T03:13:02;12.10;99.90
24384;DHT22;12504;52.870;8.798;2022-10-22T03:15:27;12.10;99.90
24384;DHT22;12504;52.870;8.798;2022-10-22T03:17:53;12.10;99.90
24384;DHT22;12504;52.870;8.798;2022-10-22T03:20:19;12.10;99.90
24384;DHT22;12504;52.870;8.798;2022-10-22T03:22:44;12.20;99.90
24384;DHT22;12504;52.870;8.798;2022-10-22T03:25:11;12.10;99.90
24384;DHT22;12504;52.870;8.798;2022-10-22T03:27:38;12.20;99.90
24384;DHT22;12504;52.870;8.798;2022-10-22T03:30:05;12.00;99.90
24384;DHT22;12504;52.870;8.798;2022-10-22T03:32:31;12.00;99.90
24384;DHT22;12504;52.870;8.798;2022-10-22T03:34:57;12.10;99.90
24384;DHT22;12504;52.870;8.798;2022-10-22T03:37:23;12.00;99.90
24384;DHT22;12504;52.870;8.798;2022-10-22T03:39:49;11.90;99.90
24384;DHT22;12504;52.870;8.798;2022-10-22T03:42:15;11.90;99.90
24384;DHT22;12504;52.870;8.798;2022-10-22T03:44:41;11.90;99.90
24384;DHT22;12504;52.870;8.798;2022-10-22T03:47:07;11.80;99.90
24384;DHT22;12504;52.870;8.798;2022-10-22T03:49:32;11.80;99.90
24384;DHT22;12504;52.870;8.798;2022-10-22T03:52:04;11.70;99.90
24384;DHT22;12504;52.870;8.798;2022-10-22T03:54:29;11.60;99.90
24384;DHT22;12504;52.870;8.798;2022-10-22T03:56:55;11.50;99.90
24384;DHT22;12504;52.870;8.798;2022-10-22T03:59:20;11.40;99.90
24384;DHT22;12504;52.870;8.798;2022-10-22T04:01:46;11.30;99.90
24384;DHT22;12504;52.870;8.798;2022-10-22T04:04:12;11.40;99.90
24384;DHT22;12504;52.870;8.798;2022-10-22T04:06:37;11.40;99.90
24384;DHT22;12504;52.870;8.798;2022-10-22T04:09:06;11.30;99.90
24384;DHT22;12504;52.870;8.798;2022-10-22T04:11:31;11.30;99.90
24384;DHT22;12504;52.870;8.798;2022-10-22T04:13:57;11.30;99.90
24384;DHT22;12504;52.870;8.798;2022-10-22T04:16:22;11.30;99.90
24384;DHT22;12504;52.870;8.798;2022-10-22T04:18:48;11.40;99.90
24384;DHT22;12504;52.870;8.798;2022-10-22T04:21:15;11.20;99.90
24384;DHT22;12504;52.870;8.798;2022-10-22T04:23:45;11.30;99.90
24384;DHT22;12504;52.870;8.798;2022-10-22T04:26:11;11.30;99.90
24384;DHT22;12504;52.870;8.798;2022-10-22T04:28:36;11.30;99.90
24384;DHT22;12504;52.870;8.798;2022-10-22T04:31:35;11.40;99.90
24384;DHT22;12504;52.870;8.798;2022-10-22T04:33:55;11.30;99.90
24384;DHT22;12504;52.870;8.798;2022-10-22T04:36:21;11.30;99.90
24384;DHT22;12504;52.870;8.798;2022-10-22T04:38:50;11.40;99.90
24384;DHT22;12504;52.870;8.798;2022-10-22T04:41:18;11.40;99.90
24384;DHT22;12504;52.870;8.798;2022-10-22T04:43:45;11.40;99.90
24384;DHT22;12504;52.870;8.798;2022-10-22T04:46:13;11.40;99.90
24384;DHT22;12504;52.870;8.798;2022-10-22T04:48:39;11.40;99.90
24384;DHT22;12504;52.870;8.798;2022-10-22T04:51:06;11.40;99.90
24384;DHT22;12504;52.870;8.798;2022-10-22T04:53:33;11.30;99.90
24384;DHT22;12504;52.870;8.798;2022-10-22T04:56:05;11.30;99.90
24384;DHT22;12504;52.870;8.798;2022-10-22T04:58:31;11.40;99.90
24384;DHT22;12504;52.870;8.798;2022-10-22T05:00:57;11.40;99.90
24384;DHT22;12504;52.870;8.798;2022-10-22T05:03:25;11.40;99.90
24384;DHT22;12504;52.870;8.798;2022-10-22T05:05:51;11.40;99.90
24384;DHT22;12504;52.870;8.798;2022-10-22T05:08:17;11.30;99.90
24384;DHT22;12504;52.870;8.798;2022-10-22T05:10:42;11.30;99.90
24384;DHT22;12504;52.870;8.798;2022-10-22T05:13:08;11.30;99.90
24384;DHT22;12504;52.870;8.798;2022-10-22T05:15:33;11.20;99.90
24384;DHT22;12504;52.870;8.798;2022-10-22T05:17:59;11.20;99.90
24384;DHT22;12504;52.870;8.798;2022-10-22T05:20:24;11.20;99.90
24384;DHT22;12504;52.870;8.798;2022-10-22T05:22:50;11.10;99.90
24384;DHT22;12504;52.870;8.798;2022-10-22T05:25:15;11.10;99.90
24384;DHT22;12504;52.870;8.798;2022-10-22T05:27:41;11.00;99.90
24384;DHT22;12504;52.870;8.798;2022-10-22T05:30:06;10.80;99.90
24384;DHT22;12504;52.870;8.798;2022-10-22T05:32:33;10.80;99.90
24384;DHT22;12504;52.870;8.798;2022-10-22T05:34:59;10.70;99.90
24384;DHT22;12504;52.870;8.798;2022-10-22T05:37:24;10.60;99.90
24384;DHT22;12504;52.870;8.798;2022-10-22T05:39:50;10.60;99.90
24384;DHT22;12504;52.870;8.798;2022-10-22T05:42:16;10.60;99.90
24384;DHT22;12504;52.870;8.798;2022-10-22T05:44:41;10.50;99.90
24384;DHT22;12504;52.870;8.798;2022-10-22T05:47:07;10.50;99.90
24384;DHT22;12504;52.870;8.798;2022-10-22T05:49:34;10.60;99.90
24384;DHT22;12504;52.870;8.798;2022-10-22T05:51:59;10.50;99.90
24384;DHT22;12504;52.870;8.798;2022-10-22T05:54:25;10.60;99.90
24384;DHT22;12504;52.870;8.798;2022-10-22T05:56:51;10.70;99.90
24384;DHT22;12504;52.870;8.798;2022-10-22T05:59:17;10.60;99.90
24384;DHT22;12504;52.870;8.798;2022-10-22T06:01:42;10.60;99.90
24384;DHT22;12504;52.870;8.798;2022-10-22T06:04:09;10.70;99.90
24384;DHT22;12504;52.870;8.798;2022-10-22T06:06:42;10.80;99.90
24384;DHT22;12504;52.870;8.798;2022-10-22T06:11:50;11.00;99.90
24384;DHT22;12504;52.870;8.798;2022-10-22T06:14:16;11.20;99.90
24384;DHT22;12504;52.870;8.798;2022-10-22T06:16:42;11.20;99.90
24384;DHT22;12504;52.870;8.798;2022-10-22T06:19:09;11.30;99.90
24384;DHT22;12504;52.870;8.798;2022-10-22T06:21:35;11.20;99.90
24384;DHT22;12504;52.870;8.798;2022-10-22T06:24:01;11.30;99.90
24384;DHT22;12504;52.870;8.798;2022-10-22T06:26:26;11.30;99.90
24384;DHT22;12504;52.870;8.798;2022-10-22T06:28:53;11.30;99.90
24384;DHT22;12504;52.870;8.798;2022-10-22T06:31:20;11.40;99.90
24384;DHT22;12504;52.870;8.798;2022-10-22T06:33:46;11.40;99.90
24384;DHT22;12504;52.870;8.798;2022-10-22T06:36:12;11.40;99.90
24384;DHT22;12504;52.870;8.798;2022-10-22T06:38:38;11.50;99.90
24384;DHT22;12504;52.870;8.798;2022-10-22T06:41:05;11.40;99.90
24384;DHT22;12504;52.870;8.798;2022-10-22T06:43:31;11.40;99.90
24384;DHT22;12504;52.870;8.798;2022-10-22T06:45:58;11.50;99.90
24384;DHT22;12504;52.870;8.798;2022-10-22T06:48:23;11.50;99.90
24384;DHT22;12504;52.870;8.798;2022-10-22T06:50:49;11.60;99.90
24384;DHT22;12504;52.870;8.798;2022-10-22T06:53:14;11.50;99.90
24384;DHT22;12504;52.870;8.798;2022-10-22T06:55:40;11.60;99.90
24384;DHT22;12504;52.870;8.798;2022-10-22T06:58:06;11.60;99.90
24384;DHT22;12504;52.870;8.798;2022-10-22T07:00:31;11.60;99.90
24384;DHT22;12504;52.870;8.798;2022-10-22T07:02:58;11.70;99.90
24384;DHT22;12504;52.870;8.798;2022-10-22T07:05:23;11.70;99.90
24384;DHT22;12504;52.870;8.798;2022-10-22T07:07:49;11.70;99.90
24384;DHT22;12504;52.870;8.798;2022-10-22T07:10:15;11.80;99.90
24384;DHT22;12504;52.870;8.798;2022-10-22T07:12:40;11.80;99.90
24384;DHT22;12504;52.870;8.798;2022-10-22T07:15:06;11.80;99.90
24384;DHT22;12504;52.870;8.798;2022-10-22T07:17:32;11.80;99.90
24384;DHT22;12504;52.870;8.798;2022-10-22T07:19:57;11.90;99.90
24384;DHT22;12504;52.870;8.798;2022-10-22T07:22:23;12.10;99.90
24384;DHT22;12504;52.870;8.798;2022-10-22T07:24:48;12.30;99.90
24384;DHT22;12504;52.870;8.798;2022-10-22T07:27:14;12.30;99.90
24384;DHT22;12504;52.870;8.798;2022-10-22T07:29:39;12.40;99.90
24384;DHT22;12504;52.870;8.798;2022-10-22T07:32:05;12.50;99.90
24384;DHT22;12504;52.870;8.798;2022-10-22T07:34:32;12.60;99.90
24384;DHT22;12504;52.870;8.798;2022-10-22T07:36:58;12.70;99.90
24384;DHT22;12504;52.870;8.798;2022-10-22T07:39:23;12.80;99.90
24384;DHT22;12504;52.870;8.798;2022-10-22T07:41:50;12.80;99.90
24384;DHT22;12504;52.870;8.798;2022-10-22T07:44:16;12.90;99.90
24384;DHT22;12504;52.870;8.798;2022-10-22T07:46:42;13.00;99.90
24384;DHT22;12504;52.870;8.798;2022-10-22T07:49:07;13.10;99.90
24384;DHT22;12504;52.870;8.798;2022-10-22T07:51:33;13.10;99.90
24384;DHT22;12504;52.870;8.798;2022-10-22T07:53:59;13.10;99.90
24384;DHT22;12504;52.870;8.798;2022-10-22T07:56:24;13.20;99.90
24384;DHT22;12504;52.870;8.798;2022-10-22T07:58:50;13.20;99.90
24384;DHT22;12504;52.870;8.798;2022-10-22T08:01:18;13.20;99.90
24384;DHT22;12504;52.870;8.798;2022-10-22T08:03:47;13.20;99.90
24384;DHT22;12504;52.870;8.798;2022-10-22T08:06:13;13.20;99.90
24384;DHT22;12504;52.870;8.798;2022-10-22T08:08:39;13.30;99.90
24384;DHT22;12504;52.870;8.798;2022-10-22T08:11:05;13.30;99.90
24384;DHT22;12504;52.870;8.798;2022-10-22T08:13:34;13.30;99.90
24384;DHT22;12504;52.870;8.798;2022-10-22T08:15:59;13.40;99.90
24384;DHT22;12504;52.870;8.798;2022-10-22T08:18:25;13.40;99.90
24384;DHT22;12504;52.870;8.798;2022-10-22T08:20:51;13.50;99.90
24384;DHT22;12504;52.870;8.798;2022-10-22T08:23:20;13.50;99.90
24384;DHT22;12504;52.870;8.798;2022-10-22T08:25:48;13.50;99.90
24384;DHT22;12504;52.870;8.798;2022-10-22T08:28:16;13.60;99.90
24384;DHT22;12504;52.870;8.798;2022-10-22T08:30:44;13.60;99.90
24384;DHT22;12504;52.870;8.798;2022-10-22T08:33:12;13.70;99.90
24384;DHT22;12504;52.870;8.798;2022-10-22T08:35:40;13.80;99.90
24384;DHT22;12504;52.870;8.798;2022-10-22T08:38:06;13.90;99.90
24384;DHT22;12504;52.870;8.798;2022-10-22T08:40:33;13.90;99.90
24384;DHT22;12504;52.870;8.798;2022-10-22T08:45:54;14.20;99.90
24384;DHT22;12504;52.870;8.798;2022-10-22T08:48:42;14.30;99.90
24384;DHT22;12504;52.870;8.798;2022-10-22T08:51:10;14.30;99.90
24384;DHT22;12504;52.870;8.798;2022-10-22T08:53:41;14.40;99.90
24384;DHT22;12504;52.870;8.798;2022-10-22T08:56:09;14.50;99.90
24384;DHT22;12504;52.870;8.798;2022-10-22T08:58:38;14.60;99.90
24384;DHT22;12504;52.870;8.798;2022-10-22T09:01:05;14.70;99.90
24384;DHT22;12504;52.870;8.798;2022-10-22T09:03:44;14.70;99.90
24384;DHT22;12504;52.870;8.798;2022-10-22T09:06:17;14.70;99.90
24384;DHT22;12504;52.870;8.798;2022-10-22T09:08:44;14.80;99.90
24384;DHT22;12504;52.870;8.798;2022-10-22T09:13:48;15.00;99.90
24384;DHT22;12504;52.870;8.798;2022-10-22T09:16:18;15.00;99.90
24384;DHT22;12504;52.870;8.798;2022-10-22T09:19:10;15.10;99.90
24384;DHT22;12504;52.870;8.798;2022-10-22T09:24:04;15.30;99.90
24384;DHT22;12504;52.870;8.798;2022-10-22T09:26:34;15.30;99.90
24384;DHT22;12504;52.870;8.798;2022-10-22T09:29:00;15.40;99.90
24384;DHT22;12504;52.870;8.798;2022-10-22T09:31:26;15.50;99.90
24384;DHT22;12504;52.870;8.798;2022-10-22T09:33:54;15.50;99.90
24384;DHT22;12504;52.870;8.798;2022-10-22T09:36:20;15.60;99.90
24384;DHT22;12504;52.870;8.798;2022-10-22T09:38:48;15.60;99.90
24384;DHT22;12504;52.870;8.798;2022-10-22T09:41:14;15.70;99.90
24384;DHT22;12504;52.870;8.798;2022-10-22T09:43:39;15.80;99.90
24384;DHT22;12504;52.870;8.798;2022-10-22T09:46:06;15.80;99.90
24384;DHT22;12504;52.870;8.798;2022-10-22T09:48:33;15.90;99.90
24384;DHT22;12504;52.870;8.798;2022-10-22T09:53:25;16.00;99.90
24384;DHT22;12504;52.870;8.798;2022-10-22T09:55:57;16.10;99.90
24384;DHT22;12504;52.870;8.798;2022-10-22T09:58:23;16.20;99.90
24384;DHT22;12504;52.870;8.798;2022-10-22T10:00:56;16.30;99.90
24384;DHT22;12504;52.870;8.798;2022-10-22T10:03:23;16.40;99.90
24384;DHT22;12504;52.870;8.798;2022-10-22T10:05:54;16.50;99.90
24384;DHT22;12504;52.870;8.798;2022-10-22T10:08:20;16.60;99.90
24384;DHT22;12504;52.870;8.798;2022-10-22T10:10:53;16.70;99.90
24384;DHT22;12504;52.870;8.798;2022-10-22T10:13:24;16.70;99.90
24384;DHT22;12504;52.870;8.798;2022-10-22T10:18:41;17.00;99.90
24384;DHT22;12504;52.870;8.798;2022-10-22T10:21:24;17.10;99.90
24384;DHT22;12504;52.870;8.798;2022-10-22T10:39:32;17.20;99.90
24384;DHT22;12504;52.870;8.798;2022-10-22T10:44:36;17.30;99.90
24384;DHT22;12504;52.870;8.798;2022-10-22T10:47:25;17.20;99.90
24384;DHT22;12504;52.870;8.798;2022-10-22T10:49:54;17.40;99.90
24384;DHT22;12504;52.870;8.798;2022-10-22T10:54:51;17.60;99.90
24384;DHT22;12504;52.870;8.798;2022-10-22T11:00:11;17.90;99.90
24384;DHT22;12504;52.870;8.798;2022-10-22T11:07:50;18.30;99.90
24384;DHT22;12504;52.870;8.798;2022-10-22T11:10:26;18.50;99.90
24384;DHT22;12504;52.870;8.798;2022-10-22T11:12:53;18.60;99.90
24384;DHT22;12504;52.870;8.798;2022-10-22T11:15:28;19.20;99.90
24384;DHT22;12504;52.870;8.798;2022-10-22T11:17:56;20.50;99.90
24384;DHT22;12504;52.870;8.798;2022-10-22T11:20:25;21.70;99.90
24384;DHT22;12504;52.870;8.798;2022-10-22T11:22:54;21.90;99.90
24384;DHT22;12504;52.870;8.798;2022-10-22T11:25:23;21.60;99.90
24384;DHT22;12504;52.870;8.798;2022-10-22T11:28:00;21.10;99.90
24384;DHT22;12504;52.870;8.798;2022-10-22T11:30:31;20.40;99.90
24384;DHT22;12504;52.870;8.798;2022-10-22T11:33:00;20.00;99.90
24384;DHT22;12504;52.870;8.798;2022-10-22T11:35:30;19.80;99.90
24384;DHT22;12504;52.870;8.798;2022-10-22T11:37:57;20.00;99.90
24384;DHT22;12504;52.870;8.798;2022-10-22T11:43:09;21.60;99.90
24384;DHT22;12504;52.870;8.798;2022-10-22T11:45:36;21.50;99.90
24384;DHT22;12504;52.870;8.798;2022-10-22T11:53:16;19.40;99.90
24384;DHT22;12504;52.870;8.798;2022-10-22T11:55:44;18.80;99.90
24384;DHT22;12504;52.870;8.798;2022-10-22T11:58:24;18.40;99.90
24384;DHT22;12504;52.870;8.798;2022-10-22T12:00:50;18.50;99.90
24384;DHT22;12504;52.870;8.798;2022-10-22T12:03:18;18.60;99.90
24384;DHT22;12504;52.870;8.798;2022-10-22T12:06:00;18.60;99.90
24384;DHT22;12504;52.870;8.798;2022-10-22T12:08:26;18.50;99.90
24384;DHT22;12504;52.870;8.798;2022-10-22T12:11:05;18.40;99.90
24384;DHT22;12504;52.870;8.798;2022-10-22T12:16:24;18.40;99.90
24384;DHT22;12504;52.870;8.798;2022-10-22T12:18:54;18.30;99.90
24384;DHT22;12504;52.870;8.798;2022-10-22T12:21:21;18.20;99.90
24384;DHT22;12504;52.870;8.798;2022-10-22T12:23:46;18.20;99.90
24384;DHT22;12504;52.870;8.798;2022-10-22T12:26:26;18.20;99.90
24384;DHT22;12504;52.870;8.798;2022-10-22T12:28:59;18.20;99.90
24384;DHT22;12504;52.870;8.798;2022-10-22T12:31:25;18.30;99.90
24384;DHT22;12504;52.870;8.798;2022-10-22T12:33:57;18.30;99.90
24384;DHT22;12504;52.870;8.798;2022-10-22T12:36:26;18.60;99.90
24384;DHT22;12504;52.870;8.798;2022-10-22T12:38:52;18.90;99.90
24384;DHT22;12504;52.870;8.798;2022-10-22T12:41:19;19.10;99.90
24384;DHT22;12504;52.870;8.798;2022-10-22T12:43:45;19.10;99.90
24384;DHT22;12504;52.870;8.798;2022-10-22T12:46:11;19.10;99.90
24384;DHT22;12504;52.870;8.798;2022-10-22T12:48:39;19.00;99.90
24384;DHT22;12504;52.870;8.798;2022-10-22T12:51:05;19.00;99.90
24384;DHT22;12504;52.870;8.798;2022-10-22T12:53:36;18.80;99.90
24384;DHT22;12504;52.870;8.798;2022-10-22T12:56:09;18.60;99.90
24384;DHT22;12504;52.870;8.798;2022-10-22T12:58:37;18.30;99.90
24384;DHT22;12504;52.870;8.798;2022-10-22T13:01:04;18.00;99.90
24384;DHT22;12504;52.870;8.798;2022-10-22T13:03:34;17.80;99.90
24384;DHT22;12504;52.870;8.798;2022-10-22T13:08:44;17.70;99.90
24384;DHT22;12504;52.870;8.798;2022-10-22T13:11:10;17.90;99.90
24384;DHT22;12504;52.870;8.798;2022-10-22T13:16:11;18.10;99.90
24384;DHT22;12504;52.870;8.798;2022-10-22T13:18:37;18.10;99.90
24384;DHT22;12504;52.870;8.798;2022-10-22T13:21:03;18.20;99.90
24384;DHT22;12504;52.870;8.798;2022-10-22T13:23:31;18.10;99.90
24384;DHT22;12504;52.870;8.798;2022-10-22T13:28:22;17.80;99.90
24384;DHT22;12504;52.870;8.798;2022-10-22T13:30:52;17.50;99.90
24384;DHT22;12504;52.870;8.798;2022-10-22T13:33:21;17.30;99.90
24384;DHT22;12504;52.870;8.798;2022-10-22T13:35:47;17.20;99.90
24384;DHT22;12504;52.870;8.798;2022-10-22T13:38:23;17.10;99.90
24384;DHT22;12504;52.870;8.798;2022-10-22T13:40:49;17.20;99.90
24384;DHT22;12504;52.870;8.798;2022-10-22T13:43:15;17.30;99.90
24384;DHT22;12504;52.870;8.798;2022-10-22T13:45:41;17.40;99.90
24384;DHT22;12504;52.870;8.798;2022-10-22T13:48:12;17.30;99.90
24384;DHT22;12504;52.870;8.798;2022-10-22T13:50:39;17.20;99.90
24384;DHT22;12504;52.870;8.798;2022-10-22T13:53:05;17.10;99.90
24384;DHT22;12504;52.870;8.798;2022-10-22T13:55:32;17.00;99.90
24384;DHT22;12504;52.870;8.798;2022-10-22T13:58:11;16.90;99.90
24384;DHT22;12504;52.870;8.798;2022-10-22T14:00:38;16.80;99.90
24384;DHT22;12504;52.870;8.798;2022-10-22T14:03:05;16.80;99.90
24384;DHT22;12504;52.870;8.798;2022-10-22T14:05:30;16.70;99.90
24384;DHT22;12504;52.870;8.798;2022-10-22T14:08:00;16.80;99.90
24384;DHT22;12504;52.870;8.798;2022-10-22T14:10:25;16.90;99.90
24384;DHT22;12504;52.870;8.798;2022-10-22T14:12:51;16.90;99.90
24384;DHT22;12504;52.870;8.798;2022-10-22T14:15:20;16.90;99.90
24384;DHT22;12504;52.870;8.798;2022-10-22T14:17:52;16.80;99.90
24384;DHT22;12504;52.870;8.798;2022-10-22T14:20:22;16.80;99.90
24384;DHT22;12504;52.870;8.798;2022-10-22T14:22:49;16.70;99.90
24384;DHT22;12504;52.870;8.798;2022-10-22T14:25:15;16.50;99.90
24384;DHT22;12504;52.870;8.798;2022-10-22T14:27:41;16.40;99.90
24384;DHT22;12504;52.870;8.798;2022-10-22T14:30:07;16.40;99.90
24384;DHT22;12504;52.870;8.798;2022-10-22T14:32:33;16.50;99.90
24384;DHT22;12504;52.870;8.798;2022-10-22T14:34:59;16.50;99.90
24384;DHT22;12504;52.870;8.798;2022-10-22T14:37:26;16.70;99.90
24384;DHT22;12504;52.870;8.798;2022-10-22T14:39:51;16.70;99.90
24384;DHT22;12504;52.870;8.798;2022-10-22T14:42:24;16.70;99.90
24384;DHT22;12504;52.870;8.798;2022-10-22T14:44:50;16.70;99.90
24384;DHT22;12504;52.870;8.798;2022-10-22T14:47:15;16.70;99.90
24384;DHT22;12504;52.870;8.798;2022-10-22T14:49:41;16.70;99.90
24384;DHT22;12504;52.870;8.798;2022-10-22T14:52:06;16.60;99.90
24384;DHT22;12504;52.870;8.798;2022-10-22T14:54:32;16.60;99.90
24384;DHT22;12504;52.870;8.798;2022-10-22T14:57:00;16.50;99.90
24384;DHT22;12504;52.870;8.798;2022-10-22T14:59:25;16.40;99.90
24384;DHT22;12504;52.870;8.798;2022-10-22T15:01:51;16.40;99.90
24384;DHT22;12504;52.870;8.798;2022-10-22T15:04:16;16.30;99.90
24384;DHT22;12504;52.870;8.798;2022-10-22T15:06:42;16.30;99.90
24384;DHT22;12504;52.870;8.798;2022-10-22T15:09:08;16.20;99.90
24384;DHT22;12504;52.870;8.798;2022-10-22T15:11:33;16.10;99.90
24384;DHT22;12504;52.870;8.798;2022-10-22T15:13:59;16.10;99.90
24384;DHT22;12504;52.870;8.798;2022-10-22T15:16:25;16.10;99.90
24384;DHT22;12504;52.870;8.798;2022-10-22T15:18:50;16.10;99.90
24384;DHT22;12504;52.870;8.798;2022-10-22T15:21:18;16.00;99.90
24384;DHT22;12504;52.870;8.798;2022-10-22T15:23:44;16.00;99.90
24384;DHT22;12504;52.870;8.798;2022-10-22T15:26:10;16.00;99.90
24384;DHT22;12504;52.870;8.798;2022-10-22T15:28:37;15.90;99.90
24384;DHT22;12504;52.870;8.798;2022-10-22T15:31:03;15.90;99.90
24384;DHT22;12504;52.870;8.798;2022-10-22T15:33:29;15.90;99.90
24384;DHT22;12504;52.870;8.798;2022-10-22T15:35:55;16.00;99.90
24384;DHT22;12504;52.870;8.798;2022-10-22T15:38:20;16.00;99.90
24384;DHT22;12504;52.870;8.798;2022-10-22T15:40:46;15.90;99.90
24384;DHT22;12504;52.870;8.798;2022-10-22T15:43:12;15.90;99.90
24384;DHT22;12504;52.870;8.798;2022-10-22T15:45:38;16.00;99.90
24384;DHT22;12504;52.870;8.798;2022-10-22T15:48:04;15.90;99.90
24384;DHT22;12504;52.870;8.798;2022-10-22T15:50:30;15.90;99.90
24384;DHT22;12504;52.870;8.798;2022-10-22T15:52:55;15.90;99.90
24384;DHT22;12504;52.870;8.798;2022-10-22T15:55:21;15.90;99.90
24384;DHT22;12504;52.870;8.798;2022-10-22T15:57:47;15.90;99.90
24384;DHT22;12504;52.870;8.798;2022-10-22T16:00:19;15.90;99.90
24384;DHT22;12504;52.870;8.798;2022-10-22T16:02:45;15.80;99.90
24384;DHT22;12504;52.870;8.798;2022-10-22T16:07:37;15.60;99.90
24384;DHT22;12504;52.870;8.798;2022-10-22T16:10:02;15.50;99.90
24384;DHT22;12504;52.870;8.798;2022-10-22T16:12:28;15.40;99.90
24384;DHT22;12504;52.870;8.798;2022-10-22T16:14:53;15.30;99.90
24384;DHT22;12504;52.870;8.798;2022-10-22T16:17:19;15.30;99.90
24384;DHT22;12504;52.870;8.798;2022-10-22T16:19:46;15.20;99.90
24384;DHT22;12504;52.870;8.798;2022-10-22T16:22:11;15.20;99.90
24384;DHT22;12504;52.870;8.798;2022-10-22T16:24:38;15.10;99.90
24384;DHT22;12504;52.870;8.798;2022-10-22T16:27:07;15.00;99.90
24384;DHT22;12504;52.870;8.798;2022-10-22T16:29:32;15.00;99.90
24384;DHT22;12504;52.870;8.798;2022-10-22T16:31:58;15.00;99.90
24384;DHT22;12504;52.870;8.798;2022-10-22T16:34:27;15.00;99.90
24384;DHT22;12504;52.870;8.798;2022-10-22T16:36:53;15.00;99.90
24384;DHT22;12504;52.870;8.798;2022-10-22T16:39:21;14.90;99.90
24384;DHT22;12504;52.870;8.798;2022-10-22T16:41:46;14.90;99.90
24384;DHT22;12504;52.870;8.798;2022-10-22T16:44:12;14.90;99.90
24384;DHT22;12504;52.870;8.798;2022-10-22T16:46:37;14.90;99.90
24384;DHT22;12504;52.870;8.798;2022-10-22T16:49:03;14.80;99.90
24384;DHT22;12504;52.870;8.798;2022-10-22T16:51:29;14.80;99.90
24384;DHT22;12504;52.870;8.798;2022-10-22T16:53:55;14.70;99.90
24384;DHT22;12504;52.870;8.798;2022-10-22T16:56:21;14.60;99.90
24384;DHT22;12504;52.870;8.798;2022-10-22T16:58:50;14.60;99.90
24384;DHT22;12504;52.870;8.798;2022-10-22T17:01:17;14.40;99.90